sensor_id;sensor_type;location;lat;lon;timestamp;temperature;humidity
26599;DHT22;14240;51.064;16.612;2023-02-28T00:01:13;1.00;99.90
26599;DHT22;14240;51.064;16.612;2023-02-28T00:03:39;1.00;99.90
26599;DHT22;14240;51.064;16.612;2023-02-28T00:06:06;1.00;99.90
26599;DHT22;14240;51.064;16.612;2023-02-28T00:08:32;1.00;99.90
26599;DHT22;14240;51.064;16.612;2023-02-28T00:11:03;1.30;99.90
26599;DHT22;14240;51.064;16.612;2023-02-28T00:13:30;1.00;99.90
26599;DHT22;14240;51.064;16.612;2023-02-28T00:16:05;1.00;99.90
26599;DHT22;14240;51.064;16.612;2023-02-28T00:18:31;1.00;99.90
26599;DHT22;14240;51.064;16.612;2023-02-28T00:20:57;1.00;99.90
26599;DHT22;14240;51.064;16.612;2023-02-28T00:23:23;1.00;99.90
26599;DHT22;14240;51.064;16.612;2023-02-28T00:25:51;1.00;99.90
26599;DHT22;14240;51.064;16.612;2023-02-28T00:28:17;0.90;99.90
26599;DHT22;14240;51.064;16.612;2023-02-28T00:30:42;0.90;99.90
26599;DHT22;14240;51.064;16.612;2023-02-28T00:33:08;0.90;99.90
26599;DHT22;14240;51.064;16.612;2023-02-28T00:35:34;0.90;99.90
26599;DHT22;14240;51.064;16.612;2023-02-28T00:38:00;1.00;99.90
26599;DHT22;14240;51.064;16.612;2023-02-28T00:40:25;1.00;99.90
26599;DHT22;14240;51.064;16.612;2023-02-28T00:42:51;1.00;99.90
26599;DHT22;14240;51.064;16.612;2023-02-28T00:45:17;1.00;99.90
26599;DHT22;14240;51.064;16.612;2023-02-28T00:47:43;1.00;99.90
26599;DHT22;14240;51.064;16.612;2023-02-28T00:50:09;2.00;99.90
26599;DHT22;14240;51.064;16.612;2023-02-28T00:52:35;1.10;99.90
26599;DHT22;14240;51.064;16.612;2023-02-28T00:55:01;1.00;99.90
26599;DHT22;14240;51.064;16.612;2023-02-28T00:57:26;1.00;99.90
26599;DHT22;14240;51.064;16.612;2023-02-28T00:59:52;0.90;99.90
26599;DHT22;14240;51.064;16.612;2023-02-28T01:02:20;0.90;99.90
26599;DHT22;14240;51.064;16.612;2023-02-28T01:04:46;0.90;99.90
26599;DHT22;14240;51.064;16.612;2023-02-28T01:07:12;1.00;99.90
26599;DHT22;14240;51.064;16.612;2023-02-28T01:09:40;1.00;99.90
26599;DHT22;14240;51.064;16.612;2023-02-28T01:12:07;1.00;99.90
26599;DHT22;14240;51.064;16.612;2023-02-28T01:14:33;1.00;99.90
26599;DHT22;14240;51.064;16.612;2023-02-28T01:17:00;1.00;99.90
26599;DHT22;14240;51.064;16.612;2023-02-28T01:19:26;1.00;99.90
26599;DHT22;14240;51.064;16.612;2023-02-28T01:21:52;1.00;99.90
26599;DHT22;14240;51.064;16.612;2023-02-28T01:24:17;1.00;99.90
26599;DHT22;14240;51.064;16.612;2023-02-28T01:26:43;1.10;99.90
26599;DHT22;14240;51.064;16.612;2023-02-28T01:29:09;1.00;99.90
26599;DHT22;14240;51.064;16.612;2023-02-28T01:31:35;1.10;99.90
26599;DHT22;14240;51.064;16.612;2023-02-28T01:34:01;1.10;99.90
26599;DHT22;14240;51.064;16.612;2023-02-28T01:36:27;1.10;99.90
26599;DHT22;14240;51.064;16.612;2023-02-28T01:38:52;1.10;99.90
26599;DHT22;14240;51.064;16.612;2023-02-28T01:41:24;1.10;99.90
26599;DHT22;14240;51.064;16.612;2023-02-28T01:46:16;1.00;99.90
26599;DHT22;14240;51.064;16.612;2023-02-28T01:48:45;1.00;99.90
26599;DHT22;14240;51.064;16.612;2023-02-28T01:51:20;1.00;99.90
26599;DHT22;14240;51.064;16.612;2023-02-28T01:53:51;1.00;99.90
26599;DHT22;14240;51.064;16.612;2023-02-28T01:56:21;1.00;99.90
26599;DHT22;14240;51.064;16.612;2023-02-28T01:58:51;1.50;99.90
26599;DHT22;14240;51.064;16.612;2023-02-28T02:01:17;1.00;99.90
26599;DHT22;14240;51.064;16.612;2023-02-28T02:03:52;1.00;99.90
26599;DHT22;14240;51.064;16.612;2023-02-28T02:06:30;1.00;99.90
26599;DHT22;14240;51.064;16.612;2023-02-28T02:08:56;1.10;99.90
26599;DHT22;14240;51.064;16.612;2023-02-28T02:11:23;1.10;99.90
26599;DHT22;14240;51.064;16.612;2023-02-28T02:48:03;1.10;99.90
26599;DHT22;14240;51.064;16.612;2023-02-28T02:50:40;1.10;99.90
26599;DHT22;14240;51.064;16.612;2023-02-28T02:53:09;1.00;99.90
26599;DHT22;14240;51.064;16.612;2023-02-28T02:55:39;1.00;99.90
26599;DHT22;14240;51.064;16.612;2023-02-28T02:58:10;1.00;99.90
26599;DHT22;14240;51.064;16.612;2023-02-28T03:00:47;1.10;99.90
26599;DHT22;14240;51.064;16.612;2023-02-28T03:03:14;1.10;99.90
26599;DHT22;14240;51.064;16.612;2023-02-28T03:05:50;1.00;99.90
26599;DHT22;14240;51.064;16.612;2023-02-28T03:08:16;1.00;99.90
26599;DHT22;14240;51.064;16.612;2023-02-28T03:10:44;1.00;99.90
26599;DHT22;14240;51.064;16.612;2023-02-28T03:21:43;1.00;99.90
26599;DHT22;14240;51.064;16.612;2023-02-28T03:24:38;1.10;99.90
26599;DHT22;14240;51.064;16.612;2023-02-28T03:27:27;1.00;99.90
26599;DHT22;14240;51.064;16.612;2023-02-28T03:35:38;1.10;99.90
26599;DHT22;14240;51.064;16.612;2023-02-28T03:40:45;1.10;99.90
26599;DHT22;14240;51.064;16.612;2023-02-28T03:43:18;1.10;99.90
26599;DHT22;14240;51.064;16.612;2023-02-28T03:45:46;1.10;99.90
26599;DHT22;14240;51.064;16.612;2023-02-28T03:48:19;1.20;99.90
26599;DHT22;14240;51.064;16.612;2023-02-28T03:50:48;1.10;99.90
26599;DHT22;14240;51.064;16.612;2023-02-28T03:53:21;1.10;99.90
26599;DHT22;14240;51.064;16.612;2023-02-28T03:55:57;1.10;99.90
26599;DHT22;14240;51.064;16.612;2023-02-28T03:58:47;1.10;99.90
26599;DHT22;14240;51.064;16.612;2023-02-28T04:01:25;1.10;99.90
26599;DHT22;14240;51.064;16.612;2023-02-28T04:03:53;1.10;99.90
26599;DHT22;14240;51.064;16.612;2023-02-28T04:06:21;1.10;99.90
26599;DHT22;14240;51.064;16.612;2023-02-28T04:08:47;1.10;99.90
26599;DHT22;14240;51.064;16.612;2023-02-28T04:14:05;1.10;99.90
26599;DHT22;14240;51.064;16.612;2023-02-28T04:16:32;1.10;99.90
26599;DHT22;14240;51.064;16.612;2023-02-28T04:18:58;1.10;99.90
26599;DHT22;14240;51.064;16.612;2023-02-28T04:21:36;1.10;99.90
26599;DHT22;14240;51.064;16.612;2023-02-28T04:24:05;1.20;99.90
26599;DHT22;14240;51.064;16.612;2023-02-28T04:26:32;1.20;99.90
26599;DHT22;14240;51.064;16.612;2023-02-28T04:28:59;1.20;99.90
26599;DHT22;14240;51.064;16.612;2023-02-28T04:31:25;1.20;99.90
26599;DHT22;14240;51.064;16.612;2023-02-28T04:33:51;1.20;99.90
26599;DHT22;14240;51.064;16.612;2023-02-28T04:36:17;1.20;99.90
26599;DHT22;14240;51.064;16.612;2023-02-28T04:38:44;1.20;99.90
26599;DHT22;14240;51.064;16.612;2023-02-28T04:41:11;1.20;99.90
26599;DHT22;14240;51.064;16.612;2023-02-28T04:43:37;1.20;99.90
26599;DHT22;14240;51.064;16.612;2023-02-28T04:46:04;1.20;99.90
26599;DHT22;14240;51.064;16.612;2023-02-28T04:48:32;1.20;99.90
26599;DHT22;14240;51.064;16.612;2023-02-28T04:51:09;1.20;99.90
26599;DHT22;14240;51.064;16.612;2023-02-28T04:53:37;1.20;99.90
26599;DHT22;14240;51.064;16.612;2023-02-28T04:56:03;1.20;99.90
26599;DHT22;14240;51.064;16.612;2023-02-28T04:58:30;1.20;99.90
26599;DHT22;14240;51.064;16.612;2023-02-28T05:03:43;1.20;99.90
26599;DHT22;14240;51.064;16.612;2023-02-28T05:06:10;1.20;99.90
26599;DHT22;14240;51.064;16.612;2023-02-28T05:08:36;1.20;99.90
26599;DHT22;14240;51.064;16.612;2023-02-28T05:11:03;1.20;99.90
26599;DHT22;14240;51.064;16.612;2023-02-28T05:13:29;1.20;99.90
26599;DHT22;14240;51.064;16.612;2023-02-28T05:15:55;1.20;99.90
26599;DHT22;14240;51.064;16.612;2023-02-28T05:18:21;1.20;99.90
26599;DHT22;14240;51.064;16.612;2023-02-28T05:20:47;1.20;99.90
26599;DHT22;14240;51.064;16.612;2023-02-28T05:23:14;1.20;99.90
26599;DHT22;14240;51.064;16.612;2023-02-28T05:25:40;1.10;99.90
26599;DHT22;14240;51.064;16.612;2023-02-28T05:28:07;1.20;99.90
26599;DHT22;14240;51.064;16.612;2023-02-28T05:30:33;1.20;99.90
26599;DHT22;14240;51.064;16.612;2023-02-28T05:32:59;1.20;99.90
26599;DHT22;14240;51.064;16.612;2023-02-28T05:35:25;1.20;99.90
26599;DHT22;14240;51.064;16.612;2023-02-28T05:37:52;1.20;99.90
26599;DHT22;14240;51.064;16.612;2023-02-28T05:40:18;1.20;99.90
26599;DHT22;14240;51.064;16.612;2023-02-28T05:42:46;1.30;99.90
26599;DHT22;14240;51.064;16.612;2023-02-28T05:45:12;1.20;99.90
26599;DHT22;14240;51.064;16.612;2023-02-28T05:47:38;1.20;99.90
26599;DHT22;14240;51.064;16.612;2023-02-28T05:50:05;1.20;99.90
26599;DHT22;14240;51.064;16.612;2023-02-28T05:52:31;1.20;99.90
26599;DHT22;14240;51.064;16.612;2023-02-28T05:54:56;1.20;99.90
26599;DHT22;14240;51.064;16.612;2023-02-28T05:57:23;1.20;99.90
26599;DHT22;14240;51.064;16.612;2023-02-28T05:59:48;1.20;99.90
26599;DHT22;14240;51.064;16.612;2023-02-28T06:02:16;1.20;99.90
26599;DHT22;14240;51.064;16.612;2023-02-28T06:04:43;1.20;99.90
26599;DHT22;14240;51.064;16.612;2023-02-28T06:07:09;1.20;99.90
26599;DHT22;14240;51.064;16.612;2023-02-28T06:09:36;1.30;99.90
26599;DHT22;14240;51.064;16.612;2023-02-28T06:12:03;1.20;99.90
26599;DHT22;14240;51.064;16.612;2023-02-28T06:14:32;1.20;99.90
26599;DHT22;14240;51.064;16.612;2023-02-28T06:16:58;1.20;99.90
26599;DHT22;14240;51.064;16.612;2023-02-28T06:19:25;1.30;99.90
26599;DHT22;14240;51.064;16.612;2023-02-28T06:21:52;1.30;99.90
26599;DHT22;14240;51.064;16.612;2023-02-28T06:24:23;1.40;99.90
26599;DHT22;14240;51.064;16.612;2023-02-28T06:26:49;1.40;99.90
26599;DHT22;14240;51.064;16.612;2023-02-28T06:29:15;1.30;99.90
26599;DHT22;14240;51.064;16.612;2023-02-28T06:31:45;1.40;99.90
26599;DHT22;14240;51.064;16.612;2023-02-28T06:34:12;1.40;99.90
26599;DHT22;14240;51.064;16.612;2023-02-28T06:36:39;1.40;99.90
26599;DHT22;14240;51.064;16.612;2023-02-28T06:39:05;1.40;99.90
26599;DHT22;14240;51.064;16.612;2023-02-28T06:41:31;1.40;99.90
26599;DHT22;14240;51.064;16.612;2023-02-28T06:43:56;1.50;99.90
26599;DHT22;14240;51.064;16.612;2023-02-28T06:46:23;1.50;99.90
26599;DHT22;14240;51.064;16.612;2023-02-28T06:48:48;1.60;99.90
26599;DHT22;14240;51.064;16.612;2023-02-28T06:51:17;1.60;99.90
26599;DHT22;14240;51.064;16.612;2023-02-28T06:53:43;1.70;99.90
26599;DHT22;14240;51.064;16.612;2023-02-28T06:56:11;1.70;99.90
26599;DHT22;14240;51.064;16.612;2023-02-28T06:58:37;1.70;99.90
26599;DHT22;14240;51.064;16.612;2023-02-28T07:01:05;1.80;99.90
26599;DHT22;14240;51.064;16.612;2023-02-28T07:03:32;1.80;99.90
26599;DHT22;14240;51.064;16.612;2023-02-28T07:05:58;1.90;99.90
26599;DHT22;14240;51.064;16.612;2023-02-28T07:08:25;2.00;99.90
26599;DHT22;14240;51.064;16.612;2023-02-28T07:10:55;2.10;99.90
26599;DHT22;14240;51.064;16.612;2023-02-28T07:13:22;2.10;99.90
26599;DHT22;14240;51.064;16.612;2023-02-28T07:16:04;2.20;99.90
26599;DHT22;14240;51.064;16.612;2023-02-28T07:18:30;2.20;99.90
26599;DHT22;14240;51.064;16.612;2023-02-28T07:20:56;2.40;99.90
26599;DHT22;14240;51.064;16.612;2023-02-28T07:23:22;2.70;99.90
26599;DHT22;14240;51.064;16.612;2023-02-28T07:25:49;3.50;99.90
26599;DHT22;14240;51.064;16.612;2023-02-28T07:28:15;4.30;99.90
26599;DHT22;14240;51.064;16.612;2023-02-28T07:30:41;5.10;99.90
26599;DHT22;14240;51.064;16.612;2023-02-28T07:33:07;6.00;99.90
26599;DHT22;14240;51.064;16.612;2023-02-28T07:35:34;6.90;99.90
26599;DHT22;14240;51.064;16.612;2023-02-28T07:38:00;7.80;99.90
26599;DHT22;14240;51.064;16.612;2023-02-28T07:40:26;9.10;99.90
26599;DHT22;14240;51.064;16.612;2023-02-28T07:42:52;9.60;99.90
26599;DHT22;14240;51.064;16.612;2023-02-28T07:45:18;10.40;99.90
26599;DHT22;14240;51.064;16.612;2023-02-28T07:47:45;11.30;99.90
26599;DHT22;14240;51.064;16.612;2023-02-28T07:50:13;12.00;99.90
26599;DHT22;14240;51.064;16.612;2023-02-28T07:52:40;12.80;99.90
26599;DHT22;14240;51.064;16.612;2023-02-28T07:55:07;13.50;99.20
26599;DHT22;14240;51.064;16.612;2023-02-28T07:57:33;14.30;97.40
26599;DHT22;14240;51.064;16.612;2023-02-28T07:59:59;15.00;95.50
26599;DHT22;14240;51.064;16.612;2023-02-28T08:02:24;15.60;92.50
26599;DHT22;14240;51.064;16.612;2023-02-28T08:04:50;16.10;90.90
26599;DHT22;14240;51.064;16.612;2023-02-28T08:07:17;16.60;87.10
26599;DHT22;14240;51.064;16.612;2023-02-28T08:09:44;17.00;83.10
26599;DHT22;14240;51.064;16.612;2023-02-28T08:12:10;17.40;80.50
26599;DHT22;14240;51.064;16.612;2023-02-28T08:14:37;17.80;77.70
26599;DHT22;14240;51.064;16.612;2023-02-28T08:17:04;18.20;72.50
26599;DHT22;14240;51.064;16.612;2023-02-28T08:19:30;18.20;68.90
26599;DHT22;14240;51.064;16.612;2023-02-28T08:21:56;18.30;68.70
26599;DHT22;14240;51.064;16.612;2023-02-28T08:24:22;18.50;65.90
26599;DHT22;14240;51.064;16.612;2023-02-28T08:26:48;18.90;64.50
26599;DHT22;14240;51.064;16.612;2023-02-28T08:29:14;19.60;63.00
26599;DHT22;14240;51.064;16.612;2023-02-28T08:31:40;20.30;60.70
26599;DHT22;14240;51.064;16.612;2023-02-28T08:34:07;20.90;58.50
26599;DHT22;14240;51.064;16.612;2023-02-28T08:36:33;21.40;56.30
26599;DHT22;14240;51.064;16.612;2023-02-28T08:38:59;22.00;55.50
26599;DHT22;14240;51.064;16.612;2023-02-28T08:41:26;22.50;53.90
26599;DHT22;14240;51.064;16.612;2023-02-28T08:43:52;22.90;52.30
26599;DHT22;14240;51.064;16.612;2023-02-28T08:46:19;23.20;50.30
26599;DHT22;14240;51.064;16.612;2023-02-28T08:48:45;23.40;49.40
26599;DHT22;14240;51.064;16.612;2023-02-28T08:51:14;23.70;48.50
26599;DHT22;14240;51.064;16.612;2023-02-28T08:53:44;24.00;46.80
26599;DHT22;14240;51.064;16.612;2023-02-28T08:56:13;24.30;46.00
26599;DHT22;14240;51.064;16.612;2023-02-28T08:58:40;24.50;44.30
26599;DHT22;14240;51.064;16.612;2023-02-28T09:01:11;24.70;43.90
26599;DHT22;14240;51.064;16.612;2023-02-28T09:03:37;25.00;43.40
26599;DHT22;14240;51.064;16.612;2023-02-28T09:06:04;25.20;42.80
26599;DHT22;14240;51.064;16.612;2023-02-28T09:08:30;25.40;41.90
26599;DHT22;14240;51.064;16.612;2023-02-28T09:10:57;25.60;41.10
26599;DHT22;14240;51.064;16.612;2023-02-28T09:13:24;25.70;40.90
26599;DHT22;14240;51.064;16.612;2023-02-28T09:15:50;25.80;40.70
26599;DHT22;14240;51.064;16.612;2023-02-28T09:18:16;25.90;39.80
26599;DHT22;14240;51.064;16.612;2023-02-28T09:20:42;26.10;39.10
26599;DHT22;14240;51.064;16.612;2023-02-28T09:23:10;26.30;38.40
26599;DHT22;14240;51.064;16.612;2023-02-28T09:25:36;26.50;38.10
26599;DHT22;14240;51.064;16.612;2023-02-28T09:28:03;26.70;38.10
26599;DHT22;14240;51.064;16.612;2023-02-28T09:30:30;27.00;37.80
26599;DHT22;14240;51.064;16.612;2023-02-28T09:32:55;27.00;36.50
26599;DHT22;14240;51.064;16.612;2023-02-28T09:35:23;26.80;35.80
26599;DHT22;14240;51.064;16.612;2023-02-28T09:37:51;26.40;35.50
26599;DHT22;14240;51.064;16.612;2023-02-28T09:40:22;26.30;35.40
26599;DHT22;14240;51.064;16.612;2023-02-28T09:42:52;26.20;35.00
26599;DHT22;14240;51.064;16.612;2023-02-28T09:47:48;25.70;35.60
26599;DHT22;14240;51.064;16.612;2023-02-28T09:50:40;25.60;35.50
26599;DHT22;14240;51.064;16.612;2023-02-28T09:53:33;25.50;35.70
26599;DHT22;14240;51.064;16.612;2023-02-28T09:56:18;25.20;35.80
26599;DHT22;14240;51.064;16.612;2023-02-28T09:59:02;24.60;35.60
26599;DHT22;14240;51.064;16.612;2023-02-28T10:04:12;22.70;36.80
26599;DHT22;14240;51.064;16.612;2023-02-28T10:06:48;21.70;37.40
26599;DHT22;14240;51.064;16.612;2023-02-28T10:09:30;20.60;38.10
26599;DHT22;14240;51.064;16.612;2023-02-28T10:12:02;19.80;39.40
26599;DHT22;14240;51.064;16.612;2023-02-28T10:14:30;19.10;40.50
26599;DHT22;14240;51.064;16.612;2023-02-28T10:19:53;17.90;41.60
26599;DHT22;14240;51.064;16.612;2023-02-28T10:24:59;16.90;43.30
26599;DHT22;14240;51.064;16.612;2023-02-28T10:27:32;16.60;43.80
26599;DHT22;14240;51.064;16.612;2023-02-28T10:30:00;16.30;44.30
26599;DHT22;14240;51.064;16.612;2023-02-28T10:32:35;16.00;44.90
26599;DHT22;14240;51.064;16.612;2023-02-28T10:37:41;15.40;45.10
26599;DHT22;14240;51.064;16.612;2023-02-28T10:40:32;15.00;45.50
26599;DHT22;14240;51.064;16.612;2023-02-28T10:43:01;14.80;45.70
26599;DHT22;14240;51.064;16.612;2023-02-28T10:45:36;14.50;46.60
26599;DHT22;14240;51.064;16.612;2023-02-28T10:56:33;13.40;48.00
26599;DHT22;14240;51.064;16.612;2023-02-28T11:01:19;12.70;49.20
26599;DHT22;14240;51.064;16.612;2023-02-28T11:03:45;12.60;49.70
26599;DHT22;14240;51.064;16.612;2023-02-28T11:06:26;12.40;50.10
26599;DHT22;14240;51.064;16.612;2023-02-28T11:08:59;12.40;50.70
26599;DHT22;14240;51.064;16.612;2023-02-28T11:11:28;12.30;50.50
26599;DHT22;14240;51.064;16.612;2023-02-28T11:14:04;12.20;50.10
26599;DHT22;14240;51.064;16.612;2023-02-28T11:16:36;12.00;50.60
26599;DHT22;14240;51.064;16.612;2023-02-28T11:19:03;11.80;51.00
26599;DHT22;14240;51.064;16.612;2023-02-28T11:21:36;11.70;51.50
26599;DHT22;14240;51.064;16.612;2023-02-28T11:24:57;11.60;51.60
26599;DHT22;14240;51.064;16.612;2023-02-28T11:29:56;11.20;52.70
26599;DHT22;14240;51.064;16.612;2023-02-28T11:32:24;11.10;52.60
26599;DHT22;14240;51.064;16.612;2023-02-28T11:35:14;10.90;52.80
26599;DHT22;14240;51.064;16.612;2023-02-28T11:37:42;10.80;53.80
26599;DHT22;14240;51.064;16.612;2023-02-28T11:40:16;10.70;53.80
26599;DHT22;14240;51.064;16.612;2023-02-28T11:43:01;10.70;54.20
26599;DHT22;14240;51.064;16.612;2023-02-28T11:48:23;10.40;54.30
26599;DHT22;14240;51.064;16.612;2023-02-28T12:05:13;9.80;55.60
26599;DHT22;14240;51.064;16.612;2023-02-28T12:10:32;9.50;56.40
26599;DHT22;14240;51.064;16.612;2023-02-28T12:15:54;9.20;56.50
26599;DHT22;14240;51.064;16.612;2023-02-28T12:18:53;9.10;57.00
26599;DHT22;14240;51.064;16.612;2023-02-28T12:27:02;9.00;57.40
26599;DHT22;14240;51.064;16.612;2023-02-28T12:29:43;8.90;57.30
26599;DHT22;14240;51.064;16.612;2023-02-28T12:32:31;8.80;57.40
26599;DHT22;14240;51.064;16.612;2023-02-28T12:35:06;8.70;57.80
26599;DHT22;14240;51.064;16.612;2023-02-28T12:37:41;8.60;58.80
26599;DHT22;14240;51.064;16.612;2023-02-28T12:40:21;8.60;59.30
26599;DHT22;14240;51.064;16.612;2023-02-28T12:42:57;8.50;59.60
26599;DHT22;14240;51.064;16.612;2023-02-28T12:45:27;8.50;59.60
26599;DHT22;14240;51.064;16.612;2023-02-28T12:48:00;8.40;59.80
26599;DHT22;14240;51.064;16.612;2023-02-28T12:50:27;8.40;60.00
26599;DHT22;14240;51.064;16.612;2023-02-28T13:11:43;8.00;60.90
26599;DHT22;14240;51.064;16.612;2023-02-28T13:14:30;7.80;61.40
26599;DHT22;14240;51.064;16.612;2023-02-28T13:22:35;7.50;62.90
26599;DHT22;14240;51.064;16.612;2023-02-28T13:27:53;7.30;63.60
26599;DHT22;14240;51.064;16.612;2023-02-28T13:38:41;7.20;64.30
26599;DHT22;14240;51.064;16.612;2023-02-28T13:46:29;7.10;64.70
26599;DHT22;14240;51.064;16.612;2023-02-28T13:48:55;7.10;64.20
26599;DHT22;14240;51.064;16.612;2023-02-28T13:51:52;7.00;64.20
26599;DHT22;14240;51.064;16.612;2023-02-28T13:54:21;6.90;64.10
26599;DHT22;14240;51.064;16.612;2023-02-28T14:05:22;6.90;64.50
26599;DHT22;14240;51.064;16.612;2023-02-28T14:07:53;6.90;64.80
26599;DHT22;14240;51.064;16.612;2023-02-28T14:13:43;6.90;65.00
26599;DHT22;14240;51.064;16.612;2023-02-28T14:16:24;6.90;65.50
26599;DHT22;14240;51.064;16.612;2023-02-28T14:19:03;6.90;65.70
26599;DHT22;14240;51.064;16.612;2023-02-28T14:21:36;6.90;65.90
26599;DHT22;14240;51.064;16.612;2023-02-28T14:24:28;6.80;65.60
26599;DHT22;14240;51.064;16.612;2023-02-28T14:27:08;6.80;65.70
26599;DHT22;14240;51.064;16.612;2023-02-28T14:37:57;6.50;67.00
26599;DHT22;14240;51.064;16.612;2023-02-28T14:40:32;6.40;67.20
26599;DHT22;14240;51.064;16.612;2023-02-28T14:43:04;6.30;67.60
26599;DHT22;14240;51.064;16.612;2023-02-28T14:45:32;6.30;68.30
26599;DHT22;14240;51.064;16.612;2023-02-28T14:47:59;6.20;68.70
26599;DHT22;14240;51.064;16.612;2023-02-28T14:50:35;6.10;69.00
26599;DHT22;14240;51.064;16.612;2023-02-28T14:53:01;6.00;69.20
26599;DHT22;14240;51.064;16.612;2023-02-28T14:55:34;6.00;69.30
26599;DHT22;14240;51.064;16.612;2023-02-28T14:58:05;5.90;69.60
26599;DHT22;14240;51.064;16.612;2023-02-28T15:00:34;5.80;69.70
26599;DHT22;14240;51.064;16.612;2023-02-28T15:03:11;5.90;69.80
26599;DHT22;14240;51.064;16.612;2023-02-28T15:05:47;5.90;70.20
26599;DHT22;14240;51.064;16.612;2023-02-28T15:08:17;5.80;70.40
26599;DHT22;14240;51.064;16.612;2023-02-28T15:11:18;5.70;70.70
26599;DHT22;14240;51.064;16.612;2023-02-28T15:13:52;5.60;70.80
26599;DHT22;14240;51.064;16.612;2023-02-28T15:16:41;5.50;71.70
26599;DHT22;14240;51.064;16.612;2023-02-28T15:19:11;5.40;71.90
26599;DHT22;14240;51.064;16.612;2023-02-28T15:21:43;5.30;72.20
26599;DHT22;14240;51.064;16.612;2023-02-28T15:24:45;5.20;72.70
26599;DHT22;14240;51.064;16.612;2023-02-28T15:27:19;5.20;73.50
26599;DHT22;14240;51.064;16.612;2023-02-28T15:29:53;5.10;73.80
26599;DHT22;14240;51.064;16.612;2023-02-28T15:34:49;5.10;73.90
26599;DHT22;14240;51.064;16.612;2023-02-28T15:37:31;5.10;73.80
26599;DHT22;14240;51.064;16.612;2023-02-28T15:40:28;5.00;74.20
26599;DHT22;14240;51.064;16.612;2023-02-28T15:43:15;5.00;74.80
26599;DHT22;14240;51.064;16.612;2023-02-28T15:45:49;5.00;74.90
26599;DHT22;14240;51.064;16.612;2023-02-28T15:48:19;4.90;75.00
26599;DHT22;14240;51.064;16.612;2023-02-28T15:50:55;4.90;75.10
26599;DHT22;14240;51.064;16.612;2023-02-28T15:53:30;4.90;75.20
26599;DHT22;14240;51.064;16.612;2023-02-28T15:58:48;4.80;75.40
26599;DHT22;14240;51.064;16.612;2023-02-28T16:01:35;4.80;75.50
26599;DHT22;14240;51.064;16.612;2023-02-28T16:04:05;4.80;75.60
26599;DHT22;14240;51.064;16.612;2023-02-28T16:06:37;4.80;75.90
26599;DHT22;14240;51.064;16.612;2023-02-28T16:09:04;4.70;76.10
26599;DHT22;14240;51.064;16.612;2023-02-28T16:11:35;4.70;76.40
26599;DHT22;14240;51.064;16.612;2023-02-28T16:14:01;4.60;76.60
26599;DHT22;14240;51.064;16.612;2023-02-28T16:16:28;4.60;76.90
26599;DHT22;14240;51.064;16.612;2023-02-28T16:18:54;4.50;77.50
26599;DHT22;14240;51.064;16.612;2023-02-28T16:21:20;4.50;78.30
26599;DHT22;14240;51.064;16.612;2023-02-28T16:23:46;4.40;79.20
26599;DHT22;14240;51.064;16.612;2023-02-28T16:26:23;4.30;80.10
26599;DHT22;14240;51.064;16.612;2023-02-28T16:28:49;4.20;81.00
26599;DHT22;14240;51.064;16.612;2023-02-28T16:31:16;4.10;81.30
26599;DHT22;14240;51.064;16.612;2023-02-28T16:33:44;4.10;81.90
26599;DHT22;14240;51.064;16.612;2023-02-28T16:36:18;4.00;82.50
26599;DHT22;14240;51.064;16.612;2023-02-28T16:38:44;3.90;83.30
26599;DHT22;14240;51.064;16.612;2023-02-28T16:41:14;3.80;83.90
26599;DHT22;14240;51.064;16.612;2023-02-28T16:43:45;3.70;84.50
26599;DHT22;14240;51.064;16.612;2023-02-28T16:46:12;3.60;85.00
26599;DHT22;14240;51.064;16.612;2023-02-28T16:48:38;3.50;85.50
26599;DHT22;14240;51.064;16.612;2023-02-28T16:51:08;3.40;86.00
26599;DHT22;14240;51.064;16.612;2023-02-28T16:53:33;3.30;86.50
26599;DHT22;14240;51.064;16.612;2023-02-28T16:56:00;3.30;87.10
26599;DHT22;14240;51.064;16.612;2023-02-28T16:58:27;3.20;87.60
26599;DHT22;14240;51.064;16.612;2023-02-28T17:00:53;3.10;87.60
26599;DHT22;14240;51.064;16.612;2023-02-28T17:03:23;3.00;87.80
26599;DHT22;14240;51.064;16.612;2023-02-28T17:05:50;3.00;88.10
26599;DHT22;14240;51.064;16.612;2023-02-28T17:08:15;2.90;88.40
26599;DHT22;14240;51.064;16.612;2023-02-28T17:10:42;2.90;88.60
26599;DHT22;14240;51.064;16.612;2023-02-28T17:13:08;2.80;88.70
26599;DHT22;14240;51.064;16.612;2023-02-28T17:15:35;2.80;89.10
26599;DHT22;14240;51.064;16.612;2023-02-28T17:18:02;2.80;89.30
26599;DHT22;14240;51.064;16.612;2023-02-28T17:20:28;2.70;89.50
26599;DHT22;14240;51.064;16.612;2023-02-28T17:22:54;2.70;89.90
26599;DHT22;14240;51.064;16.612;2023-02-28T17:25:20;2.70;90.10
26599;DHT22;14240;51.064;16.612;2023-02-28T17:27:47;2.70;90.30
26599;DHT22;14240;51.064;16.612;2023-02-28T17:30:19;2.60;90.50
26599;DHT22;14240;51.064;16.612;2023-02-28T17:32:45;2.60;90.80
26599;DHT22;14240;51.064;16.612;2023-02-28T17:35:11;2.50;91.10
26599;DHT22;14240;51.064;16.612;2023-02-28T17:37:37;2.50;91.40
26599;DHT22;14240;51.064;16.612;2023-02-28T17:40:04;2.50;91.60
26599;DHT22;14240;51.064;16.612;2023-02-28T17:42:30;2.40;91.80
26599;DHT22;14240;51.064;16.612;2023-02-28T17:44:56;2.40;91.90
26599;DHT22;14240;51.064;16.612;2023-02-28T17:47:21;2.30;92.00
26599;DHT22;14240;51.064;16.612;2023-02-28T17:49:47;2.30;92.50
26599;DHT22;14240;51.064;16.612;2023-02-28T17:52:13;2.20;92.30
26599;DHT22;14240;51.064;16.612;2023-02-28T17:54:38;2.20;92.50
26599;DHT22;14240;51.064;16.612;2023-02-28T17:57:04;2.10;92.60
26599;DHT22;14240;51.064;16.612;2023-02-28T17:59:30;2.00;92.80
26599;DHT22;14240;51.064;16.612;2023-02-28T18:02:02;2.00;92.90
26599;DHT22;14240;51.064;16.612;2023-02-28T18:04:29;1.90;93.20
26599;DHT22;14240;51.064;16.612;2023-02-28T18:06:55;1.90;93.30
26599;DHT22;14240;51.064;16.612;2023-02-28T18:09:26;1.80;93.40
26599;DHT22;14240;51.064;16.612;2023-02-28T18:11:54;1.70;93.70
26599;DHT22;14240;51.064;16.612;2023-02-28T18:14:22;1.60;94.10
26599;DHT22;14240;51.064;16.612;2023-02-28T18:16:50;1.50;94.40
26599;DHT22;14240;51.064;16.612;2023-02-28T18:19:16;1.50;94.90
26599;DHT22;14240;51.064;16.612;2023-02-28T18:21:47;1.40;95.20
26599;DHT22;14240;51.064;16.612;2023-02-28T18:24:14;1.30;95.70
26599;DHT22;14240;51.064;16.612;2023-02-28T18:26:41;1.30;96.10
26599;DHT22;14240;51.064;16.612;2023-02-28T18:29:08;1.20;96.70
26599;DHT22;14240;51.064;16.612;2023-02-28T18:31:37;1.20;97.10
26599;DHT22;14240;51.064;16.612;2023-02-28T18:34:02;1.10;97.70
26599;DHT22;14240;51.064;16.612;2023-02-28T18:36:29;1.00;98.10
26599;DHT22;14240;51.064;16.612;2023-02-28T18:38:54;1.00;98.40
26599;DHT22;14240;51.064;16.612;2023-02-28T18:41:21;0.90;99.00
26599;DHT22;14240;51.064;16.612;2023-02-28T18:43:47;0.90;99.40